Monte Cimone

LIVC · Emilia-Romagna, 意大利

罗盘
风向 的 风向 180°
风向 到 风: 44 kt, 阵阵 57 kt, 9 beaufort

添加一条跑道以查看侧风和逆风信息。

添置 跑道
0 ft 1.000 2.000 3.000 4.000 5.000
METAR LIVC 262355Z AUTO 18044G57KT //// M00/M00 Q1000

METAR Monte Cimone - LIVC

Monte Cimone是,意大利中的未知。 该机场位于纬度44,20000和经度10,70000。 本场的ICAO机场代码为LIVC。 机场在Milano FIR中。

该航空气象观测是针对Monte Cimone在2024年2月27日 00:55, 当地时间进行的。

机场观察

风向为180°,速度为44 kt。 已测得57 kt的阵风。

温度为0 °C,阵风为-12 °C。 海平面上的气压为1000 hPa (QNH)。

白天

今天,太阳从06:58升起,在18:01降落。 这适用于Monte Cimone,世界夏令时可能有所不同。 当地时间与世界标准时间之间的时差为+1 小时。 当前,没有夏令时有效。

公司介绍

我们没有关于这个机场的公司信息。

体会

到Vliegles.nl去找飞行课程,跳伞和其他飞行体验。 浏览页面,了解Monte Cimone附近所有可用的活动。 你也可以使用搜索功能来寻找你所在地附近的特定飞行课程、跳伞或其他飞行体验。

温度 & 天气

温度 0 °C
露点 0 °C
相对湿度 100%
风寒 -12 °C
Kp-index 3 (0-9)

白天

日出
06:59 (4:50)
中午
12:30
日落
18:00

小工具

你想在你的网站上有一个关于Monte Cimone的当前航空天气(METAR)的小部件吗?

显示HTML代码
?>